Terminal Aerodrome Forecast
Issued by NWS Northern Indiana

Home | Current Version | Previous Version | Text Only | Print | Product List | Glossary On
Versions: 1 2 3 4 5 6 7 8 9 10 11 12 13 14 15 16 17 18 19
284
FTUS43 KIWX 222337
TAFFWA
TAF
KFWA 222337Z 2300/2324 03009KT 6SM BR SCT050 BKN100
     FM230130 04009KT 5SM BR OVC010
     FM230300 04009KT 1SM BR OVC005
     FM230600 01009KT 1/2SM FG OVC003
     FM231800 01009KT 2SM BR OVC006=

USA.gov is the U.S. government's official web portal to all federal, state and local government web resources and services.